Argonauta — WDH3102 — position and weather

sailwx.info

Track history (hours):
 
Tides and Currents Weather Stations Pressure Air Temp Water Temp Dewpoint Dewpoint Depression Visibility Wind Speed Wind Dir Waves Ship Positions

Argonauta

Owner: MEC Marine, LLC, Carson City, NV. More information available from US FCC via Universal Licensing System and Coast Guard Vessel Documentation Center.

Last reported at 2017-Sep-18 21:37 UTC. Time now 2017-Sep-23 16:22 UTC.
Position N 33°13' W 117°24'.

Length 23 m.

Type: Pleasure craft. MMSI: 367604310.

Date/timePositionNaut miles runAvg speedWind from/ knotsBaromVisibWave heightAir tempDewpointWater temp
2017-Sep-18 21:37N 33°13' W 117°24'0 0.1
2017-Sep-18 21:16N 33°13' W 117°24'1 4.9
2017-Sep-18 21:00N 33°13' W 117°25'510.3
2017-Sep-18 20:30N 33°16' W 117°30'510.3
2017-Sep-18 20:01N 33°19' W 117°34'510.2
2017-Sep-18 19:31N 33°23' W 117°39'510.2
2017-Sep-18 19:00N 33°26' W 117°44'  
2017-Sep-14 02:24N 33°42' W 118°13'4610.3
2017-Sep-13 21:55N 34°00' W 119°04'410.9
2017-Sep-13 21:30N 34°02' W 119°09'510.2
2017-Sep-13 21:00N 34°05' W 119°14'510.2
2017-Sep-13 20:29N 34°07' W 119°20'510.4
2017-Sep-13 20:00N 34°09' W 119°26'6 9.8
2017-Sep-13 19:21N 34°11' W 119°33'510.3
2017-Sep-13 18:52N 34°12' W 119°39'610.3
2017-Sep-13 18:19N 34°14' W 119°45'410.1
2017-Sep-13 17:56N 34°16' W 119°50'4 9.8
2017-Sep-13 17:30N 34°17' W 119°54'6 9.9
2017-Sep-13 16:57N 34°19' W 120°01'5 9.8
2017-Sep-13 16:28N 34°20' W 120°06'6 9.6
2017-Sep-13 15:53N 34°22' W 120°13'4 9.5
2017-Sep-13 15:30N 34°23' W 120°17'5 9.9
2017-Sep-13 15:00N 34°24' W 120°23'5 9.9
2017-Sep-13 14:29N 34°25' W 120°29'710.2
2017-Sep-13 13:48N 34°30' W 120°35'310.3
2017-Sep-13 13:30N 34°32' W 120°38'710.1
2017-Sep-13 12:50N 34°37' W 120°43'310.1
2017-Sep-13 12:30N 34°40' W 120°45'5 9.6
2017-Sep-13 12:00N 34°44' W 120°48'5 9.3
2017-Sep-13 11:30N 34°48' W 120°51'5 9.9
2017-Sep-13 11:00N 34°52' W 120°54'710.0
2017-Sep-13 10:21N 34°58' W 120°58'410.1
2017-Sep-13 10:00N 35°01' W 121°00'5 9.9
2017-Sep-13 09:30N 35°05' W 121°04'7310.1
2017-Sep-13 02:19N 36°07' W 121°49'310.3
2017-Sep-13 02:00N 36°10' W 121°51'510.1
2017-Sep-13 01:30N 36°15' W 121°55'5 9.8
2017-Sep-13 00:58N 36°19' W 121°58'5 9.9
2017-Sep-13 00:30N 36°23' W 121°60'5 9.8
2017-Sep-13 00:00N 36°28' W 122°02'5 9.9
2017-Sep-12 23:29N 36°33' W 122°05'11 9.6
2017-Sep-12 22:23N 36°42' W 122°10'44 9.5
2017-Sep-12 17:45N 37°24' W 122°29'2 9.9
2017-Sep-12 17:30N 37°26' W 122°29'4 7.4
2017-Sep-12 17:00N 37°30' W 122°29'3 6.0
2017-Sep-12 16:30N 37°30' W 122°33'2510.1
2017-Sep-12 14:02N 37°49' W 122°54'010.3
2017-Sep-12 14:00N 37°49' W 122°54'5 9.9
2017-Sep-12 13:30N 37°53' W 122°58'5 9.7
2017-Sep-12 13:00N 37°56' W 123°02'4 9.0
2017-Sep-12 12:30N 38°00' W 123°05'5 9.2
2017-Sep-12 11:57N 38°04' W 123°08'4 9.4
2017-Sep-12 11:29N 38°08' W 123°11'5 9.5
2017-Sep-12 11:00N 38°12' W 123°15'5 9.3
2017-Sep-12 10:30N 38°16' W 123°18'5 9.7
2017-Sep-12 10:00N 38°20' W 123°22'5 9.7
2017-Sep-12 09:30N 38°24' W 123°25'  
Track history (hours):
 
Tides and Currents Weather Stations Pressure Air Temp Water Temp Dewpoint Dewpoint Depression Visibility Wind Speed Wind Dir Waves Ship Positions

Argonauta

Owner: MEC Marine, LLC, Carson City, NV. More information available from US FCC via Universal Licensing System and Coast Guard Vessel Documentation Center.

Last reported at 2017-Sep-18 21:37 UTC. Time now 2017-Sep-23 16:23 UTC.
Position N 33°13' W 117°24'.

Length 23 m.

Type: Pleasure craft. MMSI: 367604310.

Date/timePositionNaut miles runAvg speedWind from/ knotsBaromVisibWave heightAir tempDewpointWater temp
2017-Sep-18 21:37N 33°13' W 117°24'0 0.1
2017-Sep-18 21:16N 33°13' W 117°24'1 4.9
2017-Sep-18 21:00N 33°13' W 117°25'510.3
2017-Sep-18 20:30N 33°16' W 117°30'510.3
2017-Sep-18 20:01N 33°19' W 117°34'510.2
2017-Sep-18 19:31N 33°23' W 117°39'510.2
2017-Sep-18 19:00N 33°26' W 117°44'  
2017-Sep-14 02:24N 33°42' W 118°13'4610.3
2017-Sep-13 21:55N 34°00' W 119°04'410.9
2017-Sep-13 21:30N 34°02' W 119°09'510.2
2017-Sep-13 21:00N 34°05' W 119°14'510.2
2017-Sep-13 20:29N 34°07' W 119°20'510.4
2017-Sep-13 20:00N 34°09' W 119°26'6 9.8
2017-Sep-13 19:21N 34°11' W 119°33'510.3
2017-Sep-13 18:52N 34°12' W 119°39'610.3
2017-Sep-13 18:19N 34°14' W 119°45'410.1
2017-Sep-13 17:56N 34°16' W 119°50'4 9.8
2017-Sep-13 17:30N 34°17' W 119°54'6 9.9
2017-Sep-13 16:57N 34°19' W 120°01'5 9.8
2017-Sep-13 16:28N 34°20' W 120°06'6 9.6
2017-Sep-13 15:53N 34°22' W 120°13'4 9.5
2017-Sep-13 15:30N 34°23' W 120°17'5 9.9
2017-Sep-13 15:00N 34°24' W 120°23'5 9.9
2017-Sep-13 14:29N 34°25' W 120°29'710.2
2017-Sep-13 13:48N 34°30' W 120°35'310.3
2017-Sep-13 13:30N 34°32' W 120°38'710.1
2017-Sep-13 12:50N 34°37' W 120°43'310.1
2017-Sep-13 12:30N 34°40' W 120°45'5 9.6
2017-Sep-13 12:00N 34°44' W 120°48'5 9.3
2017-Sep-13 11:30N 34°48' W 120°51'5 9.9
2017-Sep-13 11:00N 34°52' W 120°54'710.0
2017-Sep-13 10:21N 34°58' W 120°58'410.1
2017-Sep-13 10:00N 35°01' W 121°00'5 9.9
2017-Sep-13 09:30N 35°05' W 121°04'7310.1
2017-Sep-13 02:19N 36°07' W 121°49'310.3
2017-Sep-13 02:00N 36°10' W 121°51'510.1
2017-Sep-13 01:30N 36°15' W 121°55'5 9.8
2017-Sep-13 00:58N 36°19' W 121°58'5 9.9
2017-Sep-13 00:30N 36°23' W 121°60'5 9.8
2017-Sep-13 00:00N 36°28' W 122°02'5 9.9
2017-Sep-12 23:29N 36°33' W 122°05'11 9.6
2017-Sep-12 22:23N 36°42' W 122°10'44 9.5
2017-Sep-12 17:45N 37°24' W 122°29'2 9.9
2017-Sep-12 17:30N 37°26' W 122°29'4 7.4
2017-Sep-12 17:00N 37°30' W 122°29'3 6.0
2017-Sep-12 16:30N 37°30' W 122°33'2510.1
2017-Sep-12 14:02N 37°49' W 122°54'010.3
2017-Sep-12 14:00N 37°49' W 122°54'5 9.9
2017-Sep-12 13:30N 37°53' W 122°58'5 9.7
2017-Sep-12 13:00N 37°56' W 123°02'4 9.0
2017-Sep-12 12:30N 38°00' W 123°05'5 9.2
2017-Sep-12 11:57N 38°04' W 123°08'4 9.4
2017-Sep-12 11:29N 38°08' W 123°11'5 9.5
2017-Sep-12 11:00N 38°12' W 123°15'5 9.3
2017-Sep-12 10:30N 38°16' W 123°18'5 9.7
2017-Sep-12 10:00N 38°20' W 123°22'5 9.7
2017-Sep-12 09:30N 38°24' W 123°25'  

Dump ship's entire track history